sensor_id;sensor_type;location;lat;lon;timestamp;temperature;humidity
77052;SHT30;65980;44.898;8.602;2022-12-26T00:03:00;9.75;92.68
77052;SHT30;65980;44.898;8.602;2022-12-26T00:06:19;9.69;93.06
77052;SHT30;65980;44.898;8.602;2022-12-26T00:13:34;9.69;92.96
77052;SHT30;65980;44.898;8.602;2022-12-26T00:17:09;9.76;92.90
77052;SHT30;65980;44.898;8.602;2022-12-26T00:20:16;9.77;92.54
77052;SHT30;65980;44.898;8.602;2022-12-26T00:23:27;9.43;93.80
77052;SHT30;65980;44.898;8.602;2022-12-26T00:26:55;9.42;94.28
77052;SHT30;65980;44.898;8.602;2022-12-26T00:30:32;9.59;93.57
77052;SHT30;65980;44.898;8.602;2022-12-26T00:33:41;9.62;93.25
77052;SHT30;65980;44.898;8.602;2022-12-26T00:36:50;9.62;93.37
77052;SHT30;65980;44.898;8.602;2022-12-26T00:40:19;9.77;92.39
77052;SHT30;65980;44.898;8.602;2022-12-26T00:43:48;9.73;92.79
77052;SHT30;65980;44.898;8.602;2022-12-26T00:47:59;9.62;93.07
77052;SHT30;65980;44.898;8.602;2022-12-26T00:51:16;9.31;94.33
77052;SHT30;65980;44.898;8.602;2022-12-26T00:54:45;9.21;94.99
77052;SHT30;65980;44.898;8.602;2022-12-26T00:57:53;9.42;94.47
77052;SHT30;65980;44.898;8.602;2022-12-26T01:05:30;9.62;93.26
77052;SHT30;65980;44.898;8.602;2022-12-26T01:09:00;9.70;92.91
77052;SHT30;65980;44.898;8.602;2022-12-26T01:12:56;9.83;92.57
77052;SHT30;65980;44.898;8.602;2022-12-26T01:16:10;9.82;92.16
77052;SHT30;65980;44.898;8.602;2022-12-26T01:19:23;9.28;94.65
77052;SHT30;65980;44.898;8.602;2022-12-26T01:22:52;9.13;95.62
77052;SHT30;65980;44.898;8.602;2022-12-26T01:25:57;9.34;94.88
77052;SHT30;65980;44.898;8.602;2022-12-26T01:29:52;9.62;93.55
77052;SHT30;65980;44.898;8.602;2022-12-26T01:33:05;9.69;92.91
77052;SHT30;65980;44.898;8.602;2022-12-26T01:36:34;9.77;92.74
77052;SHT30;65980;44.898;8.602;2022-12-26T01:39:39;9.83;92.65
77052;SHT30;65980;44.898;8.602;2022-12-26T01:42:43;9.86;92.36
77052;SHT30;65980;44.898;8.602;2022-12-26T01:45:58;9.91;92.09
77052;SHT30;65980;44.898;8.602;2022-12-26T01:49:32;9.75;92.23
77052;SHT30;65980;44.898;8.602;2022-12-26T01:52:52;9.83;92.21
77052;SHT30;65980;44.898;8.602;2022-12-26T01:56:44;9.76;92.38
77052;SHT30;65980;44.898;8.602;2022-12-26T02:00:40;9.48;93.69
77052;SHT30;65980;44.898;8.602;2022-12-26T02:04:31;9.66;93.35
77052;SHT30;65980;44.898;8.602;2022-12-26T02:08:33;9.63;93.34
77052;SHT30;65980;44.898;8.602;2022-12-26T02:11:57;9.77;92.67
77052;SHT30;65980;44.898;8.602;2022-12-26T02:15:15;9.77;92.10
77052;SHT30;65980;44.898;8.602;2022-12-26T02:18:46;9.77;92.31
77052;SHT30;65980;44.898;8.602;2022-12-26T02:22:11;9.82;92.08
77052;SHT30;65980;44.898;8.602;2022-12-26T02:34:07;9.82;91.94
77052;SHT30;65980;44.898;8.602;2022-12-26T02:45:26;9.59;92.82
77052;SHT30;65980;44.898;8.602;2022-12-26T02:48:56;9.70;92.45
77052;SHT30;65980;44.898;8.602;2022-12-26T02:56:56;9.72;92.59
77052;SHT30;65980;44.898;8.602;2022-12-26T03:00:30;9.84;91.81
77052;SHT30;65980;44.898;8.602;2022-12-26T03:04:16;9.77;92.35
77052;SHT30;65980;44.898;8.602;2022-12-26T03:07:49;9.77;92.45
77052;SHT30;65980;44.898;8.602;2022-12-26T03:11:38;9.82;92.06
77052;SHT30;65980;44.898;8.602;2022-12-26T03:15:56;9.63;92.72
77052;SHT30;65980;44.898;8.602;2022-12-26T03:19:25;9.66;92.55
77052;SHT30;65980;44.898;8.602;2022-12-26T03:23:21;9.32;94.05
77052;SHT30;65980;44.898;8.602;2022-12-26T03:26:47;9.48;93.61
77052;SHT30;65980;44.898;8.602;2022-12-26T03:29:56;9.35;93.85
77052;SHT30;65980;44.898;8.602;2022-12-26T03:33:49;9.30;94.29
77052;SHT30;65980;44.898;8.602;2022-12-26T03:41:34;9.53;93.23
77052;SHT30;65980;44.898;8.602;2022-12-26T03:49:29;9.67;92.61
77052;SHT30;65980;44.898;8.602;2022-12-26T03:53:36;9.42;93.56
77052;SHT30;65980;44.898;8.602;2022-12-26T03:57:17;9.43;93.62
77052;SHT30;65980;44.898;8.602;2022-12-26T04:01:37;9.42;93.86
77052;SHT30;65980;44.898;8.602;2022-12-26T04:05:34;9.45;93.50
77052;SHT30;65980;44.898;8.602;2022-12-26T04:13:19;9.62;93.05
77052;SHT30;65980;44.898;8.602;2022-12-26T04:17:29;9.34;93.90
77052;SHT30;65980;44.898;8.602;2022-12-26T04:21:48;9.30;94.54
77052;SHT30;65980;44.898;8.602;2022-12-26T04:26:16;9.52;93.76
77052;SHT30;65980;44.898;8.602;2022-12-26T04:30:22;9.72;93.02
77052;SHT30;65980;44.898;8.602;2022-12-26T04:38:06;9.79;92.46
77052;SHT30;65980;44.898;8.602;2022-12-26T04:41:48;9.80;92.44
77052;SHT30;65980;44.898;8.602;2022-12-26T04:46:07;9.49;93.31
77052;SHT30;65980;44.898;8.602;2022-12-26T04:49:19;9.35;94.27
77052;SHT30;65980;44.898;8.602;2022-12-26T04:53:06;9.21;94.99
77052;SHT30;65980;44.898;8.602;2022-12-26T04:56:24;9.35;94.43
77052;SHT30;65980;44.898;8.602;2022-12-26T04:59:33;9.15;95.29
77052;SHT30;65980;44.898;8.602;2022-12-26T05:03:11;9.15;95.53
77052;SHT30;65980;44.898;8.602;2022-12-26T05:06:48;9.20;95.48
77052;SHT30;65980;44.898;8.602;2022-12-26T05:10:42;9.30;95.07
77052;SHT30;65980;44.898;8.602;2022-12-26T05:14:47;9.55;93.91
77052;SHT30;65980;44.898;8.602;2022-12-26T05:17:57;9.67;93.01
77052;SHT30;65980;44.898;8.602;2022-12-26T05:25:49;9.76;92.84
77052;SHT30;65980;44.898;8.602;2022-12-26T05:29:44;9.38;94.13
77052;SHT30;65980;44.898;8.602;2022-12-26T05:32:49;9.35;94.51
77052;SHT30;65980;44.898;8.602;2022-12-26T05:36:13;9.15;95.17
77052;SHT30;65980;44.898;8.602;2022-12-26T05:39:18;9.32;94.55
77052;SHT30;65980;44.898;8.602;2022-12-26T05:42:23;9.56;93.80
77052;SHT30;65980;44.898;8.602;2022-12-26T05:45:27;9.67;92.82
77052;SHT30;65980;44.898;8.602;2022-12-26T05:48:31;9.58;93.24
77052;SHT30;65980;44.898;8.602;2022-12-26T05:52:06;9.52;93.25
77052;SHT30;65980;44.898;8.602;2022-12-26T05:55:19;9.38;93.96
77052;SHT30;65980;44.898;8.602;2022-12-26T05:58:23;9.38;94.03
77052;SHT30;65980;44.898;8.602;2022-12-26T06:01:52;9.55;93.34
77052;SHT30;65980;44.898;8.602;2022-12-26T06:04:56;9.58;93.04
77052;SHT30;65980;44.898;8.602;2022-12-26T06:08:01;9.70;92.90
77052;SHT30;65980;44.898;8.602;2022-12-26T06:11:12;9.83;92.53
77052;SHT30;65980;44.898;8.602;2022-12-26T06:14:26;9.83;92.35
77052;SHT30;65980;44.898;8.602;2022-12-26T06:17:36;9.83;92.22
77052;SHT30;65980;44.898;8.602;2022-12-26T06:20:46;9.90;91.91
77052;SHT30;65980;44.898;8.602;2022-12-26T06:24:22;9.94;91.71
77052;SHT30;65980;44.898;8.602;2022-12-26T06:27:31;9.90;91.87
77052;SHT30;65980;44.898;8.602;2022-12-26T06:34:37;9.63;93.00
77052;SHT30;65980;44.898;8.602;2022-12-26T06:37:55;9.73;92.09
77052;SHT30;65980;44.898;8.602;2022-12-26T06:41:07;9.83;91.89
77052;SHT30;65980;44.898;8.602;2022-12-26T06:44:39;9.86;91.98
77052;SHT30;65980;44.898;8.602;2022-12-26T06:47:43;9.86;91.80
77052;SHT30;65980;44.898;8.602;2022-12-26T06:51:37;9.58;92.86
77052;SHT30;65980;44.898;8.602;2022-12-26T06:54:51;9.25;94.44
77052;SHT30;65980;44.898;8.602;2022-12-26T06:58:20;9.41;93.78
77052;SHT30;65980;44.898;8.602;2022-12-26T07:05:45;9.42;93.78
77052;SHT30;65980;44.898;8.602;2022-12-26T07:09:21;9.50;93.56
77052;SHT30;65980;44.898;8.602;2022-12-26T07:12:34;9.69;92.96
77052;SHT30;65980;44.898;8.602;2022-12-26T07:15:49;9.82;92.34
77052;SHT30;65980;44.898;8.602;2022-12-26T07:23:26;9.35;93.93
77052;SHT30;65980;44.898;8.602;2022-12-26T07:31:24;9.21;95.10
77052;SHT30;65980;44.898;8.602;2022-12-26T07:34:34;9.45;94.10
77052;SHT30;65980;44.898;8.602;2022-12-26T07:37:38;9.49;93.62
77052;SHT30;65980;44.898;8.602;2022-12-26T07:41:07;9.58;93.33
77052;SHT30;65980;44.898;8.602;2022-12-26T07:44:56;9.63;93.31
77052;SHT30;65980;44.898;8.602;2022-12-26T07:48:00;9.77;92.84
77052;SHT30;65980;44.898;8.602;2022-12-26T07:51:06;9.59;93.27
77052;SHT30;65980;44.898;8.602;2022-12-26T07:54:13;9.67;92.96
77052;SHT30;65980;44.898;8.602;2022-12-26T07:57:27;9.52;93.63
77052;SHT30;65980;44.898;8.602;2022-12-26T08:00:59;9.53;93.51
77052;SHT30;65980;44.898;8.602;2022-12-26T08:04:38;9.75;93.10
77052;SHT30;65980;44.898;8.602;2022-12-26T08:08:09;9.89;92.48
77052;SHT30;65980;44.898;8.602;2022-12-26T08:11:38;9.87;92.23
77052;SHT30;65980;44.898;8.602;2022-12-26T08:14:54;9.50;93.56
77052;SHT30;65980;44.898;8.602;2022-12-26T08:17:58;9.34;94.56
77052;SHT30;65980;44.898;8.602;2022-12-26T08:21:14;9.24;95.10
77052;SHT30;65980;44.898;8.602;2022-12-26T08:24:23;9.35;94.88
77052;SHT30;65980;44.898;8.602;2022-12-26T08:27:33;9.55;94.16
77052;SHT30;65980;44.898;8.602;2022-12-26T08:31:11;9.63;93.89
77052;SHT30;65980;44.898;8.602;2022-12-26T08:34:20;9.79;93.24
77052;SHT30;65980;44.898;8.602;2022-12-26T08:41:43;10.00;92.28
77052;SHT30;65980;44.898;8.602;2022-12-26T08:45:12;10.05;92.30
77052;SHT30;65980;44.898;8.602;2022-12-26T08:48:27;9.69;93.40
77052;SHT30;65980;44.898;8.602;2022-12-26T08:51:40;9.53;93.86
77052;SHT30;65980;44.898;8.602;2022-12-26T08:54:44;9.63;93.59
77052;SHT30;65980;44.898;8.602;2022-12-26T08:57:49;9.73;93.42
77052;SHT30;65980;44.898;8.602;2022-12-26T09:01:31;9.65;93.63
77052;SHT30;65980;44.898;8.602;2022-12-26T09:04:57;9.59;93.85
77052;SHT30;65980;44.898;8.602;2022-12-26T09:08:36;9.83;93.24
77052;SHT30;65980;44.898;8.602;2022-12-26T09:11:44;10.04;92.82
77052;SHT30;65980;44.898;8.602;2022-12-26T09:14:47;10.18;92.25
77052;SHT30;65980;44.898;8.602;2022-12-26T09:18:20;10.31;91.94
77052;SHT30;65980;44.898;8.602;2022-12-26T09:21:27;10.28;91.76
77052;SHT30;65980;44.898;8.602;2022-12-26T09:25:03;10.28;91.32
77052;SHT30;65980;44.898;8.602;2022-12-26T09:28:32;10.37;91.54
77052;SHT30;65980;44.898;8.602;2022-12-26T09:32:01;9.97;91.85
77052;SHT30;65980;44.898;8.602;2022-12-26T09:35:06;9.86;93.04
77052;SHT30;65980;44.898;8.602;2022-12-26T09:38:10;9.76;92.92
77052;SHT30;65980;44.898;8.602;2022-12-26T09:45:25;9.53;94.19
77052;SHT30;65980;44.898;8.602;2022-12-26T09:52:47;9.83;93.04
77052;SHT30;65980;44.898;8.602;2022-12-26T09:56:23;9.70;92.91
77052;SHT30;65980;44.898;8.602;2022-12-26T10:00:01;9.62;93.11
77052;SHT30;65980;44.898;8.602;2022-12-26T10:04:13;9.67;92.94
77052;SHT30;65980;44.898;8.602;2022-12-26T10:08:10;9.91;92.82
77052;SHT30;65980;44.898;8.602;2022-12-26T10:11:43;10.14;91.46
77052;SHT30;65980;44.898;8.602;2022-12-26T10:15:41;10.24;90.66
77052;SHT30;65980;44.898;8.602;2022-12-26T10:33:08;10.59;90.45
77052;SHT30;65980;44.898;8.602;2022-12-26T10:37:03;10.50;90.03
77052;SHT30;65980;44.898;8.602;2022-12-26T10:40:40;10.55;89.45
77052;SHT30;65980;44.898;8.602;2022-12-26T10:44:42;10.55;89.74
77052;SHT30;65980;44.898;8.602;2022-12-26T10:47:48;10.60;89.42
77052;SHT30;65980;44.898;8.602;2022-12-26T10:51:19;10.56;89.26
77052;SHT30;65980;44.898;8.602;2022-12-26T10:54:58;10.60;89.46
77052;SHT30;65980;44.898;8.602;2022-12-26T10:58:28;10.59;89.99
77052;SHT30;65980;44.898;8.602;2022-12-26T11:01:44;10.37;90.42
77052;SHT30;65980;44.898;8.602;2022-12-26T11:05:29;10.11;91.38
77052;SHT30;65980;44.898;8.602;2022-12-26T11:09:01;9.86;91.93
77052;SHT30;65980;44.898;8.602;2022-12-26T11:12:36;9.89;92.09
77052;SHT30;65980;44.898;8.602;2022-12-26T11:16:27;9.90;92.45
77052;SHT30;65980;44.898;8.602;2022-12-26T11:24:16;10.22;90.87
77052;SHT30;65980;44.898;8.602;2022-12-26T11:28:00;9.82;92.35
77052;SHT30;65980;44.898;8.602;2022-12-26T11:32:02;9.87;92.38
77052;SHT30;65980;44.898;8.602;2022-12-26T11:35:32;9.80;92.44
77052;SHT30;65980;44.898;8.602;2022-12-26T11:39:32;9.82;92.59
77052;SHT30;65980;44.898;8.602;2022-12-26T11:43:11;10.07;91.67
77052;SHT30;65980;44.898;8.602;2022-12-26T11:50:20;10.01;91.49
77052;SHT30;65980;44.898;8.602;2022-12-26T11:53:45;9.94;92.03
77052;SHT30;65980;44.898;8.602;2022-12-26T12:01:17;10.42;91.57
77052;SHT30;65980;44.898;8.602;2022-12-26T12:04:23;10.50;90.27
77052;SHT30;65980;44.898;8.602;2022-12-26T12:11:54;10.67;90.38
77052;SHT30;65980;44.898;8.602;2022-12-26T12:26:43;10.42;91.21
77052;SHT30;65980;44.898;8.602;2022-12-26T12:30:34;10.66;90.23
77052;SHT30;65980;44.898;8.602;2022-12-26T12:34:35;10.65;90.26
77052;SHT30;65980;44.898;8.602;2022-12-26T12:46:08;10.59;90.52
77052;SHT30;65980;44.898;8.602;2022-12-26T13:04:41;10.32;91.81
77052;SHT30;65980;44.898;8.602;2022-12-26T13:12:40;10.49;91.09
77052;SHT30;65980;44.898;8.602;2022-12-26T13:17:24;10.38;91.23
77052;SHT30;65980;44.898;8.602;2022-12-26T13:20:49;10.46;91.14
77052;SHT30;65980;44.898;8.602;2022-12-26T13:24:38;10.83;89.41
77052;SHT30;65980;44.898;8.602;2022-12-26T13:28:43;10.79;89.57
77052;SHT30;65980;44.898;8.602;2022-12-26T13:31:59;10.90;89.52
77052;SHT30;65980;44.898;8.602;2022-12-26T13:39:34;10.75;89.96
77052;SHT30;65980;44.898;8.602;2022-12-26T13:43:29;10.86;89.82
77052;SHT30;65980;44.898;8.602;2022-12-26T13:47:03;10.96;89.90
77052;SHT30;65980;44.898;8.602;2022-12-26T13:54:11;11.20;88.58
77052;SHT30;65980;44.898;8.602;2022-12-26T13:57:39;11.10;89.16
77052;SHT30;65980;44.898;8.602;2022-12-26T14:01:56;10.96;89.37
77052;SHT30;65980;44.898;8.602;2022-12-26T14:09:11;11.04;89.57
77052;SHT30;65980;44.898;8.602;2022-12-26T14:20:42;11.18;89.67
77052;SHT30;65980;44.898;8.602;2022-12-26T14:28:21;10.77;90.93
77052;SHT30;65980;44.898;8.602;2022-12-26T14:35:32;10.81;91.00
77052;SHT30;65980;44.898;8.602;2022-12-26T14:50:39;11.03;90.75
77052;SHT30;65980;44.898;8.602;2022-12-26T14:54:31;11.11;90.58
77052;SHT30;65980;44.898;8.602;2022-12-26T14:57:54;11.15;90.57
77052;SHT30;65980;44.898;8.602;2022-12-26T15:04:55;11.21;90.22
77052;SHT30;65980;44.898;8.602;2022-12-26T15:15:53;11.00;91.23
77052;SHT30;65980;44.898;8.602;2022-12-26T15:35:20;11.08;90.06
77052;SHT30;65980;44.898;8.602;2022-12-26T16:04:59;10.96;89.82
77052;SHT30;65980;44.898;8.602;2022-12-26T16:08:42;10.80;90.38
77052;SHT30;65980;44.898;8.602;2022-12-26T16:13:19;10.96;89.87
77052;SHT30;65980;44.898;8.602;2022-12-26T16:21:08;10.81;90.37
77052;SHT30;65980;44.898;8.602;2022-12-26T16:25:29;11.01;89.39
77052;SHT30;65980;44.898;8.602;2022-12-26T16:32:54;11.06;89.19
77052;SHT30;65980;44.898;8.602;2022-12-26T16:36:36;11.12;88.96
77052;SHT30;65980;44.898;8.602;2022-12-26T16:43:24;11.10;88.58
77052;SHT30;65980;44.898;8.602;2022-12-26T16:47:29;11.03;89.07
77052;SHT30;65980;44.898;8.602;2022-12-26T16:51:04;11.01;88.56
77052;SHT30;65980;44.898;8.602;2022-12-26T16:54:41;10.75;89.63
77052;SHT30;65980;44.898;8.602;2022-12-26T16:58:00;10.75;89.90
77052;SHT30;65980;44.898;8.602;2022-12-26T17:01:55;10.83;89.68
77052;SHT30;65980;44.898;8.602;2022-12-26T17:05:52;10.94;89.19
77052;SHT30;65980;44.898;8.602;2022-12-26T17:09:22;10.94;88.98
77052;SHT30;65980;44.898;8.602;2022-12-26T17:13:20;11.03;88.95
77052;SHT30;65980;44.898;8.602;2022-12-26T17:17:49;10.87;89.27
77052;SHT30;65980;44.898;8.602;2022-12-26T17:21:28;10.83;89.60
77052;SHT30;65980;44.898;8.602;2022-12-26T17:24:33;10.87;89.52
77052;SHT30;65980;44.898;8.602;2022-12-26T17:39:19;10.90;89.52
77052;SHT30;65980;44.898;8.602;2022-12-26T17:43:40;10.72;90.37
77052;SHT30;65980;44.898;8.602;2022-12-26T17:47:23;10.92;89.79
77052;SHT30;65980;44.898;8.602;2022-12-26T17:51:24;11.01;88.75
77052;SHT30;65980;44.898;8.602;2022-12-26T17:59:09;11.04;88.44
77052;SHT30;65980;44.898;8.602;2022-12-26T18:02:41;10.77;89.34
77052;SHT30;65980;44.898;8.602;2022-12-26T18:05:46;10.83;89.41
77052;SHT30;65980;44.898;8.602;2022-12-26T18:09:03;10.90;89.61
77052;SHT30;65980;44.898;8.602;2022-12-26T18:13:01;10.90;89.23
77052;SHT30;65980;44.898;8.602;2022-12-26T18:16:05;10.86;89.60
77052;SHT30;65980;44.898;8.602;2022-12-26T18:19:15;10.69;89.95
77052;SHT30;65980;44.898;8.602;2022-12-26T18:30:43;10.63;90.00
77052;SHT30;65980;44.898;8.602;2022-12-26T18:37:54;10.67;89.87
77052;SHT30;65980;44.898;8.602;2022-12-26T18:41:36;10.56;90.61
77052;SHT30;65980;44.898;8.602;2022-12-26T18:45:29;10.56;90.74
77052;SHT30;65980;44.898;8.602;2022-12-26T18:48:47;10.75;90.38
77052;SHT30;65980;44.898;8.602;2022-12-26T18:56:38;10.90;89.14
77052;SHT30;65980;44.898;8.602;2022-12-26T18:59:47;10.84;89.23
77052;SHT30;65980;44.898;8.602;2022-12-26T19:06:50;10.97;88.60
77052;SHT30;65980;44.898;8.602;2022-12-26T19:10:17;10.84;88.98
77052;SHT30;65980;44.898;8.602;2022-12-26T19:18:15;10.84;89.27
77052;SHT30;65980;44.898;8.602;2022-12-26T19:21:19;10.80;89.41
77052;SHT30;65980;44.898;8.602;2022-12-26T19:24:56;10.75;89.47
77052;SHT30;65980;44.898;8.602;2022-12-26T19:28:06;10.65;89.75
77052;SHT30;65980;44.898;8.602;2022-12-26T19:31:46;10.56;90.08
77052;SHT30;65980;44.898;8.602;2022-12-26T19:35:20;10.72;89.90
77052;SHT30;65980;44.898;8.602;2022-12-26T19:38:58;10.81;89.16
77052;SHT30;65980;44.898;8.602;2022-12-26T19:42:09;10.83;89.05
77052;SHT30;65980;44.898;8.602;2022-12-26T19:45:42;10.84;89.20
77052;SHT30;65980;44.898;8.602;2022-12-26T19:57:10;10.69;89.59
77052;SHT30;65980;44.898;8.602;2022-12-26T20:00:20;10.60;89.90
77052;SHT30;65980;44.898;8.602;2022-12-26T20:04:01;10.75;89.79
77052;SHT30;65980;44.898;8.602;2022-12-26T20:07:13;10.81;89.37
77052;SHT30;65980;44.898;8.602;2022-12-26T20:10:43;10.87;89.12
77052;SHT30;65980;44.898;8.602;2022-12-26T20:13:51;10.65;89.74
77052;SHT30;65980;44.898;8.602;2022-12-26T20:20:55;10.46;90.76
77052;SHT30;65980;44.898;8.602;2022-12-26T20:29:11;10.30;90.99
77052;SHT30;65980;44.898;8.602;2022-12-26T20:32:41;10.12;92.30
77052;SHT30;65980;44.898;8.602;2022-12-26T20:36:33;10.08;92.67
77052;SHT30;65980;44.898;8.602;2022-12-26T20:39:47;10.07;92.82
77052;SHT30;65980;44.898;8.602;2022-12-26T20:43:48;10.20;92.36
77052;SHT30;65980;44.898;8.602;2022-12-26T20:47:41;10.34;91.82
77052;SHT30;65980;44.898;8.602;2022-12-26T20:50:58;10.24;92.17
77052;SHT30;65980;44.898;8.602;2022-12-26T20:54:37;10.32;92.02
77052;SHT30;65980;44.898;8.602;2022-12-26T20:58:05;10.55;91.05
77052;SHT30;65980;44.898;8.602;2022-12-26T21:01:16;10.69;90.57
77052;SHT30;65980;44.898;8.602;2022-12-26T21:04:46;10.76;90.21
77052;SHT30;65980;44.898;8.602;2022-12-26T21:08:16;10.81;89.53
77052;SHT30;65980;44.898;8.602;2022-12-26T21:12:00;10.81;89.79
77052;SHT30;65980;44.898;8.602;2022-12-26T21:15:04;10.84;89.94
77052;SHT30;65980;44.898;8.602;2022-12-26T21:18:09;10.87;89.14
77052;SHT30;65980;44.898;8.602;2022-12-26T21:25:20;10.45;91.41
77052;SHT30;65980;44.898;8.602;2022-12-26T21:28:29;10.53;90.95
77052;SHT30;65980;44.898;8.602;2022-12-26T21:31:34;10.70;90.39
77052;SHT30;65980;44.898;8.602;2022-12-26T21:35:07;10.87;89.65
77052;SHT30;65980;44.898;8.602;2022-12-26T21:38:44;10.90;89.25
77052;SHT30;65980;44.898;8.602;2022-12-26T21:42:21;10.84;89.53
77052;SHT30;65980;44.898;8.602;2022-12-26T21:45:51;10.96;88.93
77052;SHT30;65980;44.898;8.602;2022-12-26T21:49:02;10.90;88.81
77052;SHT30;65980;44.898;8.602;2022-12-26T21:56:41;10.96;88.50
77052;SHT30;65980;44.898;8.602;2022-12-26T22:03:50;10.31;90.75
77052;SHT30;65980;44.898;8.602;2022-12-26T22:07:41;10.42;90.90
77052;SHT30;65980;44.898;8.602;2022-12-26T22:11:14;10.63;90.22
77052;SHT30;65980;44.898;8.602;2022-12-26T22:14:48;10.70;89.38
77052;SHT30;65980;44.898;8.602;2022-12-26T22:25:56;10.80;89.03
77052;SHT30;65980;44.898;8.602;2022-12-26T22:29:32;10.81;88.59
77052;SHT30;65980;44.898;8.602;2022-12-26T22:32:42;10.70;89.05
77052;SHT30;65980;44.898;8.602;2022-12-26T22:36:09;10.75;88.92
77052;SHT30;65980;44.898;8.602;2022-12-26T22:39:14;10.69;89.20
77052;SHT30;65980;44.898;8.602;2022-12-26T22:42:35;10.69;89.50
77052;SHT30;65980;44.898;8.602;2022-12-26T22:45:45;10.70;89.32
77052;SHT30;65980;44.898;8.602;2022-12-26T22:49:46;10.69;89.23
77052;SHT30;65980;44.898;8.602;2022-12-26T22:52:57;10.60;89.52
77052;SHT30;65980;44.898;8.602;2022-12-26T22:56:31;10.62;89.78
77052;SHT30;65980;44.898;8.602;2022-12-26T23:00:00;10.70;89.35
77052;SHT30;65980;44.898;8.602;2022-12-26T23:03:44;10.70;89.06
77052;SHT30;65980;44.898;8.602;2022-12-26T23:06:54;10.49;89.96
77052;SHT30;65980;44.898;8.602;2022-12-26T23:14:06;10.18;91.51
77052;SHT30;65980;44.898;8.602;2022-12-26T23:17:36;10.22;91.05
77052;SHT30;65980;44.898;8.602;2022-12-26T23:22:03;10.25;90.85
77052;SHT30;65980;44.898;8.602;2022-12-26T23:25:34;10.41;90.58
77052;SHT30;65980;44.898;8.602;2022-12-26T23:29:03;10.20;91.21
77052;SHT30;65980;44.898;8.602;2022-12-26T23:32:31;9.91;92.71
77052;SHT30;65980;44.898;8.602;2022-12-26T23:35:47;9.83;93.31
77052;SHT30;65980;44.898;8.602;2022-12-26T23:38:58;9.75;93.81
77052;SHT30;65980;44.898;8.602;2022-12-26T23:42:06;9.67;93.98
77052;SHT30;65980;44.898;8.602;2022-12-26T23:45:17;9.63;94.28
77052;SHT30;65980;44.898;8.602;2022-12-26T23:48:25;9.55;95.02
77052;SHT30;65980;44.898;8.602;2022-12-26T23:51:36;9.49;95.45
77052;SHT30;65980;44.898;8.602;2022-12-26T23:54:45;9.45;95.75
77052;SHT30;65980;44.898;8.602;2022-12-26T23:58:21;9.39;96.03
